createdAt,value
2022-10-11T00:05:17.922Z,10.40
2022-10-11T00:15:23.260Z,10.60
2022-10-11T00:25:27.026Z,9.20
2022-10-11T00:35:30.604Z,8.70
2022-10-11T00:45:34.671Z,7.70
2022-10-11T00:55:49.494Z,7.90
2022-10-11T01:05:53.671Z,7.20
2022-10-11T01:16:23.740Z,8.00
2022-10-11T01:26:30.475Z,8.30
2022-10-11T01:36:37.927Z,7.70
2022-10-11T01:46:41.891Z,7.10
2022-10-11T01:57:04.399Z,7.70
2022-10-11T02:07:11.573Z,6.60
2022-10-11T02:17:21.264Z,6.80
2022-10-11T02:27:30.848Z,7.10
2022-10-11T02:37:53.650Z,7.50
2022-10-11T02:48:01.058Z,6.70
2022-10-11T02:58:05.202Z,5.60
2022-10-11T03:08:10.629Z,5.60
2022-10-11T03:18:14.350Z,6.50
2022-10-11T03:28:18.072Z,6.30
2022-10-11T03:38:23.012Z,5.80
2022-10-11T03:48:27.193Z,7.10
2022-10-11T03:58:31.066Z,7.80
2022-10-11T04:08:34.627Z,7.00
2022-10-11T04:18:38.499Z,7.60
2022-10-11T04:28:42.327Z,10.70
2022-10-11T04:38:45.931Z,9.20
2022-10-11T04:48:49.692Z,8.60
2022-10-11T04:58:55.091Z,8.60
2022-10-11T05:08:58.869Z,8.20
2022-10-11T05:19:02.506Z,9.50
2022-10-11T05:29:06.195Z,11.20
2022-10-11T05:39:10.062Z,8.30
2022-10-11T05:49:13.628Z,7.70
2022-10-11T05:59:17.803Z,10.10
2022-10-11T06:09:21.489Z,9.50
2022-10-11T06:19:25.339Z,10.00
2022-10-11T06:29:29.232Z,9.40
2022-10-11T06:39:32.881Z,10.20
2022-10-11T06:49:36.674Z,9.20
2022-10-11T06:59:40.638Z,9.70
2022-10-11T07:09:44.594Z,9.20
2022-10-11T07:19:48.386Z,9.40
2022-10-11T07:29:52.451Z,9.80
2022-10-11T07:39:56.304Z,9.30
2022-10-11T07:50:00.275Z,8.20
2022-10-11T08:00:05.380Z,11.40
2022-10-11T08:10:15.719Z,7.90
2022-10-11T08:20:19.670Z,7.90
2022-10-11T08:30:23.740Z,9.30
2022-10-11T08:40:30.436Z,8.30
2022-10-11T08:50:38.836Z,9.30
2022-10-11T09:00:46.818Z,8.80
2022-10-11T09:11:10.432Z,8.20
2022-10-11T09:21:52.874Z,8.20
2022-10-11T09:31:58.808Z,9.50
2022-10-11T09:42:10.820Z,10.10
2022-10-11T09:52:20.456Z,9.90
2022-10-11T10:02:25.552Z,9.10
2022-10-11T10:12:30.957Z,10.00
2022-10-11T10:22:36.344Z,9.00
2022-10-11T10:32:56.092Z,12.50
2022-10-11T10:43:00.080Z,12.50
2022-10-11T10:53:26.675Z,14.20
2022-10-11T11:03:55.668Z,10.00
2022-10-11T11:14:22.510Z,7.50
2022-10-11T11:24:38.131Z,6.00
2022-10-11T11:35:23.742Z,6.50
2022-10-11T11:45:51.442Z,6.60
2022-10-11T11:56:09.085Z,6.60
2022-10-11T12:06:12.606Z,6.70
2022-10-11T12:16:17.931Z,7.40
2022-10-11T12:26:37.157Z,7.00
2022-10-11T12:36:44.171Z,7.30
2022-10-11T12:46:51.008Z,8.00
2022-10-11T12:57:34.286Z,6.30
2022-10-11T13:07:41.735Z,6.50
2022-10-11T13:27:51.776Z,7.40
2022-10-11T13:37:55.853Z,7.70
2022-10-11T13:47:59.781Z,7.30
2022-10-11T13:58:16.245Z,8.20
2022-10-11T14:08:31.166Z,9.30
2022-10-11T14:18:48.648Z,11.10
2022-10-11T14:28:57.547Z,11.40
2022-10-11T14:39:02.515Z,12.00
2022-10-11T14:49:23.682Z,11.40
2022-10-11T14:59:32.979Z,13.90
2022-10-11T15:09:36.950Z,11.00
2022-10-11T15:19:40.932Z,11.70
2022-10-11T15:29:44.980Z,12.00
2022-10-11T15:39:49.801Z,10.10
2022-10-11T15:49:54.076Z,12.20
2022-10-11T15:59:58.131Z,11.80
2022-10-11T16:10:02.625Z,12.10
2022-10-11T16:20:08.027Z,15.10
2022-10-11T16:30:13.501Z,15.00
2022-10-11T16:40:20.682Z,14.40
2022-10-11T16:50:24.752Z,14.10
2022-10-11T17:00:28.719Z,12.10
2022-10-11T17:10:39.753Z,12.40
2022-10-11T17:20:43.929Z,13.10
2022-10-11T17:30:58.348Z,11.40
2022-10-11T17:41:05.741Z,9.80
2022-10-11T17:51:19.231Z,13.90
2022-10-11T18:01:25.962Z,24.30
2022-10-11T18:11:31.123Z,24.40
2022-10-11T18:21:36.197Z,26.10
2022-10-11T18:31:41.444Z,27.90
2022-10-11T18:41:45.444Z,31.10
2022-10-11T18:51:50.390Z,33.80
2022-10-11T19:01:55.248Z,31.40
2022-10-11T19:11:59.677Z,40.30
2022-10-11T19:22:06.840Z,30.50
2022-10-11T19:32:10.885Z,40.80
2022-10-11T19:42:15.899Z,34.20
2022-10-11T19:52:20.470Z,29.40
2022-10-11T20:02:24.637Z,31.80
2022-10-11T20:12:29.579Z,36.50
2022-10-11T20:22:34.169Z,33.60
2022-10-11T20:32:38.165Z,33.40
2022-10-11T20:42:42.209Z,39.40
2022-10-11T20:52:46.250Z,35.40
2022-10-11T21:02:53.115Z,36.90
2022-10-11T21:12:57.173Z,34.70
2022-10-11T21:23:01.128Z,35.00
2022-10-11T21:33:05.401Z,31.30
2022-10-11T21:43:09.071Z,26.30
2022-10-11T21:53:12.641Z,28.00
2022-10-11T22:03:16.307Z,24.60
2022-10-11T22:13:20.382Z,25.80
2022-10-11T22:23:23.836Z,24.80
2022-10-11T22:33:28.060Z,24.30
2022-10-11T22:43:31.891Z,22.40
2022-10-11T22:53:35.967Z,24.80
2022-10-11T23:03:39.614Z,26.00
2022-10-11T23:13:43.844Z,23.50
2022-10-11T23:23:48.396Z,19.90
2022-10-11T23:33:53.925Z,16.10
2022-10-11T23:43:58.697Z,16.40
2022-10-11T23:54:02.297Z,17.00
